Wetterdaten: Sonntag, 25.07.2010
Datum Zeit Temp. A. Feuchte A. Luftdruck Regen Wind Richtung Richtung Sonnenschein UV Solar Windben
25.07.2010 00:00 13,9 C 64 % 1018,3 hPa 0,0 mm 1,6 km/h (1 Bft) NW 315 0 min 0 UV-I 0 W/m 9,7 km/h (2 Bft)
25.07.2010 00:10 13,8 C 65 % 1018,1 hPa 0,0 mm 0,0 km/h (0 Bft) NW 315 0 min 0 UV-I 0 W/m 4,8 km/h (1 Bft)
25.07.2010 00:20 13,5 C 67 % 1018,1 hPa 0,0 mm 0,0 km/h (0 Bft) W-NW 292 0 min 0 UV-I 0 W/m 3,2 km/h (1 Bft)
25.07.2010 00:30 13,3 C 68 % 1018,1 hPa 0,0 mm 0,0 km/h (0 Bft) W-NW 292 0 min 0 UV-I 0 W/m 1,6 km/h (1 Bft)
25.07.2010 00:40 13,1 C 69 % 1018,1 hPa 0,0 mm 0,0 km/h (0 Bft) N 360 0 min 0 UV-I 0 W/m 4,8 km/h (1 Bft)
25.07.2010 00:50 12,9 C 69 % 1018,1 hPa 0,0 mm 0,0 km/h (0 Bft) N 360 0 min 0 UV-I 0 W/m 3,2 km/h (1 Bft)
25.07.2010 01:00 12,8 C 70 % 1018,0 hPa 0,0 mm 0,0 km/h (0 Bft) N-NW 337 0 min 0 UV-I 0 W/m 3,2 km/h (1 Bft)
25.07.2010 01:10 12,8 C 70 % 1017,9 hPa 0,0 mm 0,0 km/h (0 Bft) N-NW 337 0 min 0 UV-I 0 W/m 6,4 km/h (2 Bft)
25.07.2010 01:20 12,8 C 69 % 1017,9 hPa 0,0 mm 0,0 km/h (0 Bft) NW 315 0 min 0 UV-I 0 W/m 4,8 km/h (1 Bft)
25.07.2010 01:30 12,5 C 69 % 1017,8 hPa 0,0 mm 0,0 km/h (0 Bft) W-NW 292 0 min 0 UV-I 0 W/m 3,2 km/h (1 Bft)
25.07.2010 01:40 12,3 C 70 % 1017,8 hPa 0,0 mm 0,0 km/h (0 Bft) W-NW 292 0 min 0 UV-I 0 W/m 4,8 km/h (1 Bft)
25.07.2010 01:50 12,2 C 70 % 1017,8 hPa 0,0 mm 0,0 km/h (0 Bft) W-NW 292 0 min 0 UV-I 0 W/m 4,8 km/h (1 Bft)
25.07.2010 02:00 12,0 C 71 % 1017,9 hPa 0,0 mm 0,0 km/h (0 Bft) W-NW 292 0 min 0 UV-I 0 W/m 4,8 km/h (1 Bft)
25.07.2010 02:10 11,8 C 72 % 1018,0 hPa 0,0 mm 0,0 km/h (0 Bft) W-NW 292 0 min 0 UV-I 0 W/m 4,8 km/h (1 Bft)
25.07.2010 02:20 11,7 C 72 % 1017,9 hPa 0,0 mm 0,0 km/h (0 Bft) W-NW 292 0 min 0 UV-I 0 W/m 1,6 km/h (1 Bft)
25.07.2010 02:30 11,6 C 73 % 1017,8 hPa 0,0 mm 0,0 km/h (0 Bft) W-NW 292 0 min 0 UV-I 0 W/m 1,6 km/h (1 Bft)
25.07.2010 02:40 11,3 C 74 % 1017,9 hPa 0,0 mm 0,0 km/h (0 Bft) N 0 0 min 0 UV-I 0 W/m 0,0 km/h (0 Bft)
25.07.2010 02:50 10,9 C 74 % 1017,9 hPa 0,0 mm 0,0 km/h (0 Bft) W-NW 292 0 min 0 UV-I 0 W/m 1,6 km/h (1 Bft)
25.07.2010 03:00 10,7 C 74 % 1017,9 hPa 0,0 mm 0,0 km/h (0 Bft) W-NW 292 0 min 0 UV-I 0 W/m 1,6 km/h (1 Bft)
25.07.2010 03:10 10,6 C 75 % 1017,8 hPa 0,0 mm 0,0 km/h (0 Bft) W-NW 292 0 min 0 UV-I 0 W/m 1,6 km/h (1 Bft)
25.07.2010 03:20 10,4 C 76 % 1017,8 hPa 0,0 mm 0,0 km/h (0 Bft) W-NW 292 0 min 0 UV-I 0 W/m 1,6 km/h (1 Bft)
25.07.2010 03:30 10,2 C 76 % 1017,8 hPa 0,0 mm 0,0 km/h (0 Bft) W-NW 292 0 min 0 UV-I 0 W/m 1,6 km/h (1 Bft)
25.07.2010 03:40 9,9 C 77 % 1017,7 hPa 0,0 mm 0,0 km/h (0 Bft) W-NW 292 0 min 0 UV-I 0 W/m 1,6 km/h (1 Bft)
25.07.2010 03:50 9,7 C 78 % 1017,6 hPa 0,0 mm 0,0 km/h (0 Bft) W-NW 292 0 min 0 UV-I 0 W/m 1,6 km/h (1 Bft)
25.07.2010 04:00 9,6 C 79 % 1017,5 hPa 0,0 mm 0,0 km/h (0 Bft) W-NW 292 0 min 0 UV-I 0 W/m 1,6 km/h (1 Bft)
25.07.2010 04:10 9,5 C 79 % 1017,4 hPa 0,0 mm 0,0 km/h (0 Bft) W-NW 292 0 min 0 UV-I 0 W/m 1,6 km/h (1 Bft)
25.07.2010 04:20 9,3 C 80 % 1017,4 hPa 0,0 mm 0,0 km/h (0 Bft) W-NW 292 0 min 0 UV-I 0 W/m 1,6 km/h (1 Bft)
25.07.2010 04:30 9,2 C 81 % 1017,3 hPa 0,0 mm 0,0 km/h (0 Bft) W-NW 292 0 min 0 UV-I 0 W/m 1,6 km/h (1 Bft)
25.07.2010 04:40 8,8 C 81 % 1017,3 hPa 0,0 mm 0,0 km/h (0 Bft) W-NW 292 0 min 0 UV-I 0 W/m 1,6 km/h (1 Bft)
25.07.2010 04:50 8,6 C 83 % 1017,3 hPa 0,0 mm 0,0 km/h (0 Bft) N 0 0 min 0 UV-I 0 W/m 0,0 km/h (0 Bft)
25.07.2010 05:00 8,7 C 83 % 1017,2 hPa 0,0 mm 0,0 km/h (0 Bft) N 0 0 min 0 UV-I 0 W/m 0,0 km/h (0 Bft)
25.07.2010 05:10 8,4 C 83 % 1017,3 hPa 0,0 mm 0,0 km/h (0 Bft) N 0 0 min 0 UV-I 0 W/m 0,0 km/h (0 Bft)
25.07.2010 05:20 8,4 C 84 % 1017,3 hPa 0,0 mm 0,0 km/h (0 Bft) W-NW 292 0 min 0 UV-I 0 W/m 1,6 km/h (1 Bft)
25.07.2010 05:30 8,6 C 84 % 1017,3 hPa 0,0 mm 0,0 km/h (0 Bft) W-NW 292 0 min 0 UV-I 0 W/m 1,6 km/h (1 Bft)
25.07.2010 05:40 8,7 C 84 % 1017,3 hPa 0,0 mm 0,0 km/h (0 Bft) W-NW 292 0 min 0 UV-I 0 W/m 1,6 km/h (1 Bft)
25.07.2010 05:50 8,7 C 84 % 1017,4 hPa 0,0 mm 0,0 km/h (0 Bft) W-NW 292 0 min 0 UV-I 5 W/m 1,6 km/h (1 Bft)
25.07.2010 06:00 8,7 C 84 % 1017,4 hPa 0,0 mm 0,0 km/h (0 Bft) W-NW 292 0 min 0 UV-I 7 W/m 1,6 km/h (1 Bft)
25.07.2010 06:10 8,7 C 84 % 1017,3 hPa 0,0 mm 0,0 km/h (0 Bft) W-NW 292 0 min 0 UV-I 12 W/m 1,6 km/h (1 Bft)
25.07.2010 06:20 8,7 C 84 % 1017,3 hPa 0,0 mm 0,0 km/h (0 Bft) W-NW 292 0 min 0 UV-I 16 W/m 1,6 km/h (1 Bft)
25.07.2010 06:30 8,7 C 84 % 1017,3 hPa 0,0 mm 0,0 km/h (0 Bft) N 0 0 min 0 UV-I 18 W/m 0,0 km/h (0 Bft)
25.07.2010 06:40 8,9 C 84 % 1017,3 hPa 0,0 mm 0,0 km/h (0 Bft) W-NW 292 0 min 0 UV-I 21 W/m 1,6 km/h (1 Bft)
25.07.2010 06:50 9,2 C 84 % 1017,3 hPa 0,0 mm 0,0 km/h (0 Bft) W-NW 292 0 min 0 UV-I 67 W/m 1,6 km/h (1 Bft)
25.07.2010 07:00 9,6 C 83 % 1017,3 hPa 0,0 mm 0,0 km/h (0 Bft) W-NW 292 10 min 0 UV-I 123 W/m 1,6 km/h (1 Bft)
25.07.2010 07:10 9,8 C 82 % 1017,2 hPa 0,0 mm 0,0 km/h (0 Bft) W-NW 292 0 min 0 UV-I 102 W/m 1,6 km/h (1 Bft)
25.07.2010 07:20 10,2 C 81 % 1017,3 hPa 0,0 mm 0,0 km/h (0 Bft) W-NW 292 0 min 1 UV-I 79 W/m 1,6 km/h (1 Bft)
25.07.2010 07:30 10,5 C 80 % 1017,3 hPa 0,0 mm 0,0 km/h (0 Bft) W 270 10 min 1 UV-I 190 W/m 1,6 km/h (1 Bft)
25.07.2010 07:40 10,9 C 79 % 1017,2 hPa 0,0 mm 1,6 km/h (1 Bft) W 270 10 min 1 UV-I 221 W/m 4,8 km/h (1 Bft)
25.07.2010 07:50 11,2 C 78 % 1017,1 hPa 0,0 mm 3,2 km/h (1 Bft) W 270 10 min 1 UV-I 248 W/m 9,7 km/h (2 Bft)
25.07.2010 08:00 11,4 C 77 % 1016,9 hPa 0,0 mm 0,8 km/h (0 Bft) W-SW 257 10 min 1 UV-I 271 W/m 4,8 km/h (1 Bft)
25.07.2010 08:10 11,8 C 77 % 1016,8 hPa 0,0 mm 1,6 km/h (1 Bft) W-SW 247 10 min 1 UV-I 299 W/m 4,8 km/h (1 Bft)
25.07.2010 08:20 12,1 C 77 % 1016,8 hPa 0,0 mm 1,6 km/h (1 Bft) W-SW 247 10 min 1 UV-I 325 W/m 6,4 km/h (2 Bft)
25.07.2010 08:30 12,6 C 76 % 1016,7 hPa 0,0 mm 0,0 km/h (0 Bft) W-SW 247 10 min 1 UV-I 348 W/m 3,2 km/h (1 Bft)
25.07.2010 08:40 13,1 C 76 % 1016,7 hPa 0,0 mm 1,6 km/h (1 Bft) W-SW 247 10 min 2 UV-I 371 W/m 6,4 km/h (2 Bft)
25.07.2010 08:50 13,4 C 74 % 1016,6 hPa 0,0 mm 3,2 km/h (1 Bft) W 270 10 min 2 UV-I 406 W/m 9,7 km/h (2 Bft)
25.07.2010 09:00 13,9 C 73 % 1016,5 hPa 0,0 mm 1,6 km/h (1 Bft) S-SW 202 10 min 2 UV-I 431 W/m 8,0 km/h (2 Bft)
25.07.2010 09:10 14,4 C 70 % 1016,5 hPa 0,0 mm 1,6 km/h (1 Bft) S-SW 202 10 min 2 UV-I 459 W/m 8,0 km/h (2 Bft)
25.07.2010 09:20 14,8 C 67 % 1016,4 hPa 0,0 mm 1,6 km/h (1 Bft) W 270 10 min 2 UV-I 483 W/m 6,4 km/h (2 Bft)
25.07.2010 09:30 15,0 C 66 % 1016,2 hPa 0,0 mm 1,6 km/h (1 Bft) W-SW 247 10 min 3 UV-I 513 W/m 9,7 km/h (2 Bft)
25.07.2010 09:40 15,0 C 65 % 1016,2 hPa 0,0 mm 1,6 km/h (1 Bft) W-NW 292 10 min 3 UV-I 538 W/m 8,0 km/h (2 Bft)
25.07.2010 09:50 15,4 C 63 % 1016,2 hPa 0,0 mm 3,2 km/h (1 Bft) W-NW 292 10 min 3 UV-I 559 W/m 9,7 km/h (2 Bft)
25.07.2010 10:00 15,7 C 63 % 1016,2 hPa 0,0 mm 1,6 km/h (1 Bft) W 270 10 min 3 UV-I 587 W/m 8,0 km/h (2 Bft)
25.07.2010 10:10 16,2 C 64 % 1016,2 hPa 0,0 mm 1,6 km/h (1 Bft) W-SW 247 10 min 3 UV-I 612 W/m 4,8 km/h (1 Bft)
25.07.2010 10:20 15,9 C 62 % 1016,2 hPa 0,0 mm 1,6 km/h (1 Bft) W 270 10 min 4 UV-I 649 W/m 9,7 km/h (2 Bft)
25.07.2010 10:30 16,2 C 61 % 1015,9 hPa 0,0 mm 3,2 km/h (1 Bft) W-SW 247 10 min 4 UV-I 654 W/m 9,7 km/h (2 Bft)
25.07.2010 10:40 17,0 C 60 % 1015,9 hPa 0,0 mm 1,6 km/h (1 Bft) SW 225 10 min 4 UV-I 705 W/m 17,7 km/h (3 Bft)
25.07.2010 10:50 16,9 C 60 % 1015,8 hPa 0,0 mm 3,2 km/h (1 Bft) W 270 10 min 4 UV-I 714 W/m 17,7 km/h (3 Bft)
25.07.2010 11:00 17,4 C 59 % 1015,8 hPa 0,0 mm 3,2 km/h (1 Bft) W 270 10 min 5 UV-I 733 W/m 8,0 km/h (2 Bft)
25.07.2010 11:10 17,5 C 57 % 1015,7 hPa 0,0 mm 4,8 km/h (1 Bft) W 270 10 min 5 UV-I 749 W/m 14,5 km/h (3 Bft)
25.07.2010 11:20 17,6 C 56 % 1015,6 hPa 0,0 mm 3,2 km/h (1 Bft) W 270 10 min 5 UV-I 756 W/m 9,7 km/h (2 Bft)
25.07.2010 11:30 18,1 C 55 % 1015,4 hPa 0,0 mm 1,6 km/h (1 Bft) W 270 10 min 5 UV-I 775 W/m 16,1 km/h (3 Bft)
25.07.2010 11:40 18,4 C 53 % 1015,3 hPa 0,0 mm 3,2 km/h (1 Bft) W 270 10 min 6 UV-I 789 W/m 17,7 km/h (3 Bft)
25.07.2010 11:50 18,8 C 53 % 1015,4 hPa 0,0 mm 4,8 km/h (1 Bft) W 270 10 min 6 UV-I 840 W/m 14,5 km/h (3 Bft)
25.07.2010 12:00 18,8 C 54 % 1015,2 hPa 0,0 mm 4,8 km/h (1 Bft) W 270 10 min 6 UV-I 891 W/m 17,7 km/h (3 Bft)
25.07.2010 12:10 19,6 C 51 % 1015,1 hPa 0,0 mm 4,8 km/h (1 Bft) W 270 10 min 6 UV-I 967 W/m 19,3 km/h (3 Bft)
25.07.2010 12:20 19,6 C 51 % 1015,0 hPa 0,0 mm 4,8 km/h (1 Bft) W-NW 292 10 min 6 UV-I 993 W/m 16,1 km/h (3 Bft)
25.07.2010 12:30 19,6 C 51 % 1015,0 hPa 0,0 mm 4,8 km/h (1 Bft) W-NW 292 10 min 6 UV-I 939 W/m 16,1 km/h (3 Bft)
25.07.2010 12:40 19,4 C 52 % 1014,8 hPa 0,0 mm 4,8 km/h (1 Bft) W-NW 292 10 min 6 UV-I 573 W/m 14,5 km/h (3 Bft)
25.07.2010 12:50 19,6 C 51 % 1014,9 hPa 0,0 mm 4,8 km/h (1 Bft) W 270 0 min 6 UV-I 415 W/m 16,1 km/h (3 Bft)
25.07.2010 13:00 20,1 C 51 % 1014,7 hPa 0,0 mm 4,8 km/h (1 Bft) W-SW 247 10 min 7 UV-I 1072 W/m 17,7 km/h (3 Bft)
25.07.2010 13:10 20,5 C 49 % 1014,7 hPa 0,0 mm 4,8 km/h (1 Bft) W 270 10 min 7 UV-I 1000 W/m 16,1 km/h (3 Bft)
25.07.2010 13:20 20,6 C 49 % 1014,7 hPa 0,0 mm 4,8 km/h (1 Bft) W-SW 247 10 min 7 UV-I 1071 W/m 16,1 km/h (3 Bft)
25.07.2010 13:30 20,7 C 49 % 1014,7 hPa 0,0 mm 4,8 km/h (1 Bft) W 270 10 min 7 UV-I 1067 W/m 17,7 km/h (3 Bft)
25.07.2010 13:40 20,7 C 49 % 1014,6 hPa 0,0 mm 6,4 km/h (2 Bft) W-SW 247 10 min 7 UV-I 814 W/m 19,3 km/h (3 Bft)
25.07.2010 13:50 20,3 C 50 % 1014,6 hPa 0,0 mm 8,0 km/h (2 Bft) W 270 10 min 6 UV-I 649 W/m 19,3 km/h (3 Bft)
25.07.2010 14:00 21,1 C 49 % 1014,5 hPa 0,0 mm 6,4 km/h (2 Bft) W 270 10 min 7 UV-I 1204 W/m 19,3 km/h (3 Bft)
25.07.2010 14:10 21,1 C 48 % 1014,5 hPa 0,0 mm 4,8 km/h (1 Bft) W-NW 292 10 min 7 UV-I 1153 W/m 16,1 km/h (3 Bft)
25.07.2010 14:20 20,7 C 49 % 1014,5 hPa 0,0 mm 6,4 km/h (2 Bft) W 270 0 min 4 UV-I 424 W/m 19,3 km/h (3 Bft)
25.07.2010 15:20 21,3 C 49 % 1014,5 hPa 0,0 mm 4,8 km/h (1 Bft) W 270 60 min 5 UV-I 563 W/m 16,1 km/h (3 Bft)
25.07.2010 15:30 21,4 C 47 % 1014,3 hPa 0,0 mm 4,8 km/h (1 Bft) W-NW 292 10 min 5 UV-I 984 W/m 14,5 km/h (3 Bft)
25.07.2010 15:40 20,7 C 48 % 1014,4 hPa 0,0 mm 4,8 km/h (1 Bft) NW 315 10 min 4 UV-I 522 W/m 16,1 km/h (3 Bft)
25.07.2010 15:50 21,6 C 48 % 1014,1 hPa 0,0 mm 3,2 km/h (1 Bft) W-NW 292 10 min 5 UV-I 956 W/m 11,3 km/h (2 Bft)
25.07.2010 16:00 21,7 C 48 % 1014,0 hPa 0,0 mm 5,9 km/h (2 Bft) W-NW 288 10 min 4 UV-I 563 W/m 9,7 km/h (2 Bft)
25.07.2010 16:10 21,6 C 50 % 1013,9 hPa 0,0 mm 4,8 km/h (1 Bft) W-NW 292 10 min 4 UV-I 812 W/m 14,5 km/h (3 Bft)
25.07.2010 16:20 22,5 C 46 % 1013,7 hPa 0,0 mm 3,2 km/h (1 Bft) W-NW 292 10 min 4 UV-I 802 W/m 12,9 km/h (3 Bft)
25.07.2010 16:30 21,4 C 48 % 1013,7 hPa 0,0 mm 4,8 km/h (1 Bft) W 270 0 min 3 UV-I 362 W/m 16,1 km/h (3 Bft)
25.07.2010 16:40 22,1 C 48 % 1013,6 hPa 0,0 mm 4,8 km/h (1 Bft) W-SW 247 10 min 4 UV-I 826 W/m 14,5 km/h (3 Bft)
25.07.2010 16:50 22,9 C 49 % 1013,5 hPa 0,0 mm 4,8 km/h (1 Bft) SW 225 10 min 3 UV-I 751 W/m 16,1 km/h (3 Bft)
25.07.2010 17:00 22,3 C 47 % 1013,4 hPa 0,0 mm 1,6 km/h (1 Bft) W-SW 247 10 min 3 UV-I 468 W/m 6,4 km/h (2 Bft)
25.07.2010 17:10 22,4 C 47 % 1013,4 hPa 0,0 mm 3,2 km/h (1 Bft) W-NW 292 10 min 3 UV-I 682 W/m 9,7 km/h (2 Bft)
25.07.2010 17:20 22,0 C 47 % 1013,5 hPa 0,0 mm 3,2 km/h (1 Bft) W 270 10 min 3 UV-I 594 W/m 11,3 km/h (2 Bft)
25.07.2010 17:30 21,7 C 47 % 1013,3 hPa 0,0 mm 1,6 km/h (1 Bft) NW 315 0 min 2 UV-I 213 W/m 4,8 km/h (1 Bft)
25.07.2010 17:40 21,6 C 49 % 1013,3 hPa 0,0 mm 3,2 km/h (1 Bft) W-NW 292 10 min 2 UV-I 575 W/m 11,3 km/h (2 Bft)
25.07.2010 17:50 22,6 C 47 % 1013,3 hPa 0,0 mm 3,2 km/h (1 Bft) W-NW 292 10 min 2 UV-I 548 W/m 11,3 km/h (2 Bft)
25.07.2010 18:00 22,0 C 47 % 1013,1 hPa 0,0 mm 1,6 km/h (1 Bft) W 270 0 min 2 UV-I 243 W/m 6,4 km/h (2 Bft)
25.07.2010 18:10 21,4 C 49 % 1013,0 hPa 0,0 mm 4,8 km/h (1 Bft) W-SW 247 0 min 1 UV-I 188 W/m 14,5 km/h (3 Bft)
25.07.2010 18:20 21,7 C 49 % 1013,0 hPa 0,0 mm 3,2 km/h (1 Bft) W-SW 247 10 min 1 UV-I 446 W/m 11,3 km/h (2 Bft)
25.07.2010 18:30 21,6 C 50 % 1012,9 hPa 0,0 mm 3,2 km/h (1 Bft) W-NW 292 10 min 1 UV-I 385 W/m 9,7 km/h (2 Bft)
25.07.2010 18:40 21,5 C 50 % 1013,0 hPa 0,0 mm 3,2 km/h (1 Bft) W 270 0 min 1 UV-I 193 W/m 11,3 km/h (2 Bft)
25.07.2010 18:50 21,1 C 50 % 1012,8 hPa 0,0 mm 1,6 km/h (1 Bft) W-SW 247 0 min 1 UV-I 125 W/m 6,4 km/h (2 Bft)
25.07.2010 19:00 21,0 C 51 % 1012,9 hPa 0,0 mm 1,6 km/h (1 Bft) W 270 0 min 1 UV-I 104 W/m 6,4 km/h (2 Bft)
25.07.2010 19:10 21,0 C 52 % 1012,8 hPa 0,0 mm 3,2 km/h (1 Bft) W 270 0 min 1 UV-I 104 W/m 9,7 km/h (2 Bft)
25.07.2010 19:20 21,0 C 52 % 1012,8 hPa 0,0 mm 1,6 km/h (1 Bft) W-SW 247 0 min 0 UV-I 65 W/m 11,3 km/h (2 Bft)
25.07.2010 19:30 20,8 C 53 % 1012,8 hPa 0,0 mm 3,2 km/h (1 Bft) W 270 0 min 0 UV-I 56 W/m 12,9 km/h (3 Bft)
25.07.2010 19:40 20,4 C 59 % 1012,9 hPa 0,0 mm 8,0 km/h (2 Bft) W 270 0 min 0 UV-I 77 W/m 20,9 km/h (4 Bft)
25.07.2010 19:50 20,1 C 61 % 1012,8 hPa 0,0 mm 8,0 km/h (2 Bft) W 270 0 min 0 UV-I 98 W/m 20,9 km/h (4 Bft)
25.07.2010 20:00 19,8 C 63 % 1012,9 hPa 0,0 mm 6,4 km/h (2 Bft) W 270 0 min 0 UV-I 90 W/m 16,1 km/h (3 Bft)
25.07.2010 20:10 19,4 C 64 % 1013,0 hPa 0,0 mm 8,0 km/h (2 Bft) W 270 0 min 0 UV-I 58 W/m 17,7 km/h (3 Bft)
25.07.2010 20:20 19,1 C 66 % 1013,1 hPa 0,0 mm 8,0 km/h (2 Bft) W 270 0 min 0 UV-I 60 W/m 20,9 km/h (4 Bft)
25.07.2010 20:30 18,9 C 67 % 1013,3 hPa 0,0 mm 6,4 km/h (2 Bft) W-SW 247 0 min 0 UV-I 46 W/m 17,7 km/h (3 Bft)
25.07.2010 20:40 18,9 C 67 % 1013,3 hPa 0,0 mm 8,0 km/h (2 Bft) W-SW 247 0 min 0 UV-I 33 W/m 22,5 km/h (4 Bft)
25.07.2010 20:50 18,8 C 68 % 1013,2 hPa 0,0 mm 8,0 km/h (2 Bft) W 270 0 min 0 UV-I 33 W/m 19,3 km/h (3 Bft)
25.07.2010 21:00 18,6 C 69 % 1013,3 hPa 0,0 mm 8,0 km/h (2 Bft) W 270 0 min 0 UV-I 21 W/m 22,5 km/h (4 Bft)
25.07.2010 21:10 18,4 C 70 % 1013,3 hPa 0,0 mm 6,4 km/h (2 Bft) W-SW 247 10 min 0 UV-I 12 W/m 16,1 km/h (3 Bft)
25.07.2010 21:20 18,3 C 71 % 1013,3 hPa 0,0 mm 4,8 km/h (1 Bft) W 270 0 min 0 UV-I 7 W/m 17,7 km/h (3 Bft)
25.07.2010 21:30 18,1 C 72 % 1013,4 hPa 0,0 mm 4,8 km/h (1 Bft) W 270 0 min 0 UV-I 0 W/m 12,9 km/h (3 Bft)
25.07.2010 21:40 18,0 C 73 % 1013,4 hPa 0,0 mm 4,8 km/h (1 Bft) W 270 0 min 0 UV-I 0 W/m 11,3 km/h (2 Bft)
25.07.2010 21:50 17,9 C 73 % 1013,4 hPa 0,0 mm 3,2 km/h (1 Bft) W-SW 247 0 min 0 UV-I 0 W/m 11,3 km/h (2 Bft)
25.07.2010 22:00 17,8 C 73 % 1013,4 hPa 0,0 mm 1,6 km/h (1 Bft) W 270 0 min 0 UV-I 0 W/m 6,4 km/h (2 Bft)
25.07.2010 22:10 17,8 C 74 % 1013,3 hPa 0,0 mm 0,0 km/h (0 Bft) W-SW 247 0 min 0 UV-I 0 W/m 3,2 km/h (1 Bft)
25.07.2010 22:20 17,7 C 74 % 1013,3 hPa 0,0 mm 1,6 km/h (1 Bft) W-SW 247 0 min 0 UV-I 0 W/m 4,8 km/h (1 Bft)
25.07.2010 22:30 17,7 C 74 % 1013,3 hPa 0,0 mm 1,6 km/h (1 Bft) W-SW 247 0 min 0 UV-I 0 W/m 14,5 km/h (3 Bft)
25.07.2010 22:40 17,5 C 74 % 1013,3 hPa 0,0 mm 1,6 km/h (1 Bft) W 270 0 min 0 UV-I 0 W/m 8,0 km/h (2 Bft)
25.07.2010 22:50 17,4 C 74 % 1013,4 hPa 0,0 mm 1,6 km/h (1 Bft) SW 225 0 min 0 UV-I 0 W/m 6,4 km/h (2 Bft)
25.07.2010 23:00 17,3 C 75 % 1013,4 hPa 0,0 mm 0,0 km/h (0 Bft) SW 225 0 min 0 UV-I 0 W/m 4,8 km/h (1 Bft)
25.07.2010 23:10 17,3 C 76 % 1013,4 hPa 0,0 mm 0,0 km/h (0 Bft) SW 225 0 min 0 UV-I 0 W/m 4,8 km/h (1 Bft)
25.07.2010 23:20 17,2 C 76 % 1013,4 hPa 0,0 mm 0,0 km/h (0 Bft) S-SW 202 0 min 0 UV-I 0 W/m 4,8 km/h (1 Bft)
25.07.2010 23:30 17,2 C 76 % 1013,4 hPa 0,0 mm 0,0 km/h (0 Bft) S-SW 202 0 min 0 UV-I 0 W/m 4,8 km/h (1 Bft)
25.07.2010 23:40 17,1 C 77 % 1013,4 hPa 0,0 mm 0,0 km/h (0 Bft) W-SW 247 0 min 0 UV-I 0 W/m 6,4 km/h (2 Bft)
25.07.2010 23:50 17,1 C 78 % 1013,4 hPa 0,0 mm 1,6 km/h (1 Bft) S-SW 202 0 min 0 UV-I 0 W/m 9,7 km/h (2 Bft)
_ Min-Zeit 05:20 16:20 18:50 - 00:10 - - - - - 02:40
Minimum _ 8,3 C 46 % 1012,8 hPa - 0,0 km/h (0 Bft) - - - - - 0,0 km/h (0 Bft)
_ Max-Zeit 17:00 05:20 00:00 00:00 13:50 - - 15:20 14:00 14:00 20:40
Maximum _ 23,0 C 84 % 1018,3 hPa 0,0 mm 8,0 km/h
W (2 Bft)
- - 60 min 7 UV-I 1204 W/m 22,5 km/h
W-SW (4 Bft)
Durchschnitt _ 15,9 C 66 % 1015,5 hPa #0,0 mm 2,4 km/h (1 Bft) W - #10:30 h 4 UV-I 456 W/m 8,9 km/h (2 Bft)